You are not logged in, Click here to log in
ICAO: VTBS Country: 泰國曼谷以東25公里北欖府Bang Phli區
Latitude: 13.69 Longitude: 100.75
Total Arrivals: 46 Total Departures: 45
Latest Arrival: TG683 (RJTT-VTBS)Mori. Yang Latest Departure: TG628 (VTBS-VHHH)Mori. Yang
Scenery:
METAR : VTBS 182130Z 23002KT 9999 FEW020 27/24 Q1008 NOSIG

蘇萬那普國際機場(曼谷國際機場) BKK